Time;durP1;ratioP1;P1;durP2;ratioP2;P2;SDS_P1;SDS_P2;PMS_P1;PMS_P2;Temp;Humidity;BMP_temperature;BMP_pressure;BME280_temperature;BME280_humidity;BME280_pressure;Samples;Min_cycle;Max_cycle;Signal;HPM_P1;HPM_P2
2023/03/12 00:02:02;;;;;;;;;;;;;;;;;;5054724;28;6682;-69
2023/03/12 00:04:43;;;;;;;;;;;;;;;;;;5055059;28;7207;-69
2023/03/12 00:07:08;;;;;;;;;;;;;;;;;;5054729;28;7020;-69
2023/03/12 00:09:35;;;;;;;;;;;;;;;;;;5055019;28;7021;-69
2023/03/12 00:12:04;;;;;;;;;;;;;;;;;;5054909;28;7177;-69
2023/03/12 00:14:29;;;;;;;;;;;;;;;;;;5055037;28;6961;-69
2023/03/12 00:16:55;;;;;;;;;;;;;;;;;;5055010;28;7078;-69
2023/03/12 00:22:24;;;;;;;;;;;;;;;;;;5054513;28;6677;-69
2023/03/12 00:24:54;;;;;;;;;;;;;;;;;;5066215;28;6980;-69
2023/03/12 00:27:20;;;;;;;;;;;;;;;;;;5055280;28;7169;-69
2023/03/12 00:29:45;;;;;;;;;;;;;;;;;;5040187;28;6916;-69
2023/03/12 00:35:14;;;;;;;;;;;;;;;;;;5034560;28;6999;-69
2023/03/12 00:38:02;;;;;;;;;;;;;;;;;;5034739;28;7436;-69
2023/03/12 00:40:28;;;;;;;;;;;;;;;;;;5034687;28;7070;-69
2023/03/12 00:42:53;;;;;;;;;;;;;;;;;;5034665;28;7160;-69
2023/03/12 00:48:24;;;;;;;;;;;;;;;;;;5054430;28;6702;-69
2023/03/12 00:50:49;;;;;;;;;;;;;;;;;;5051993;28;6940;-69
2023/03/12 00:53:15;;;;;;;;;;;;;;;;;;5054354;28;7151;-69
2023/03/12 00:55:40;;;;;;;;;;;;;;;;;;5054020;28;7011;-69
2023/03/12 01:01:09;;;;;;;;;;;;;;;;;;5054127;28;6674;-69
2023/03/12 01:03:35;;;;;;;;;;;;;;;;;;5054376;28;7281;-69
2023/03/12 01:09:05;;;;;;;;;;;;;;;;;;5054240;28;6979;-68
2023/03/12 01:14:33;;;;;;;;;;;;;;;;;;5054071;28;6973;-68
2023/03/12 01:20:02;;;;;;;;;;;;;;;;;;5054156;28;6924;-68
2023/03/12 01:22:28;;;;;;;;;;;;;;;;;;5053732;28;8245;-68
2023/03/12 01:25:18;;;;;;;;;;;;;;;;;;5058619;28;6931;-68
2023/03/12 01:27:44;;;;;;;;;;;;;;;;;;5054203;28;7359;-68
2023/03/12 01:30:10;;;;;;;;;;;;;;;;;;5054012;28;7087;-68
2023/03/12 01:32:36;;;;;;;;;;;;;;;;;;5053816;28;8017;-68
2023/03/12 01:35:04;;;;;;;;;;;;;;;;;;5054118;28;7041;-68
2023/03/12 01:40:34;;;;;;;;;;;;;;;;;;5057562;28;6678;-68
2023/03/12 01:46:05;;;;;;;;;;;;;;;;;;5057481;28;6927;-68
2023/03/12 01:48:39;;;;;;;;;;;;;;;;;;5057629;28;7695;-68
2023/03/12 01:54:20;;;;;;;;;;;;;;;;;;5057755;28;7010;-68
2023/03/12 01:56:46;;;;;;;;;;;;;;;;;;5057497;28;7103;-68
2023/03/12 01:59:22;;;;;;;;;;;;;;;;;;5057826;28;7113;-68
2023/03/12 02:01:49;;;;;;;;;;;;;;;;;;5056970;28;7141;-68
2023/03/12 02:04:17;;;;;;;;;;;;;;;;;;5057615;28;7346;-68
2023/03/12 02:07:08;;;;;;;;;;;;;;;;;;5057325;28;7536;-68
2023/03/12 02:12:37;;;;;;;;;;;;;;;;;;5057163;28;6686;-68
2023/03/12 02:15:25;;;;;;;;;;;;;;;;;;5057944;28;6864;-68
2023/03/12 02:17:50;;;;;;;;;;;;;;;;;;5057613;28;6880;-68
2023/03/12 02:20:22;;;;;;;;;;;;;;;;;;5057111;28;7130;-68
2023/03/12 02:23:12;;;;;;;;;;;;;;;;;;5056779;28;7065;-68
2023/03/12 02:28:42;;;;;;;;;;;;;;;;;;5056516;28;6778;-68
2023/03/12 02:31:12;;;;;;;;;;;;;;;;;;5056510;28;6970;-68
2023/03/12 02:33:54;;;;;;;;;;;;;;;;;;5056628;28;7322;-68
2023/03/12 02:39:23;;;;;;;;;;;;;;;;;;5056580;28;6689;-68
2023/03/12 02:44:42;;;;;;;;;;;;;;;;;;5057198;28;6978;-68
2023/03/12 02:47:08;;;;;;;;;;;;;;;;;;5056515;28;6931;-68
2023/03/12 02:49:34;;;;;;;;;;;;;;;;;;5055692;28;7262;-68
2023/03/12 02:52:02;;;;;;;;;;;;;;;;;;5056356;28;7306;-68
2023/03/12 02:57:59;;;;;;;;;;;;;;;;;;5056118;28;6690;-68
2023/03/12 03:00:24;;;;;;;;;;;;;;;;;;5056323;28;7395;-68
2023/03/12 03:02:50;;;;;;;;;;;;;;;;;;5056112;28;6994;-68
2023/03/12 03:05:16;;;;;;;;;;;;;;;;;;5056186;28;6909;-68
2023/03/12 03:07:42;;;;;;;;;;;;;;;;;;5057230;28;7159;-68
2023/03/12 03:10:08;;;;;;;;;;;;;;;;;;5038251;28;8429;-68
2023/03/12 03:12:35;;;;;;;;;;;;;;;;;;5056471;28;7153;-68
2023/03/12 03:15:02;;;;;;;;;;;;;;;;;;5055764;28;7249;-68
2023/03/12 03:17:44;;;;;;;;;;;;;;;;;;5055845;28;7131;-68
2023/03/12 03:20:10;;;;;;;;;;;;;;;;;;5055850;28;6995;-68
2023/03/12 03:22:38;;;;;;;;;;;;;;;;;;5056324;28;7101;-68
2023/03/12 03:25:05;;;;;;;;;;;;;;;;;;5055634;28;7119;-68
2023/03/12 03:27:31;;;;;;;;;;;;;;;;;;5055663;28;7154;-68
2023/03/12 03:29:56;;;;;;;;;;;;;;;;;;5055737;28;7098;-68
2023/03/12 03:32:22;;;;;;;;;;;;;;;;;;5055639;28;7136;-68
2023/03/12 03:40:54;;;;;;;;;;;;;;;;;;5055287;28;6678;-68
2023/03/12 03:43:37;;;;;;;;;;;;;;;;;;5055323;28;7226;-68
2023/03/12 03:46:04;;;;;;;;;;;;;;;;;;5055392;28;7100;-68
2023/03/12 03:48:30;;;;;;;;;;;;;;;;;;5055807;28;7623;-68
2023/03/12 03:50:59;;;;;;;;;;;;;;;;;;5055301;28;6932;-68
2023/03/12 03:53:25;;;;;;;;;;;;;;;;;;5055186;28;7196;-68
2023/03/12 03:55:50;;;;;;;;;;;;;;;;;;5055219;28;7071;-68
2023/03/12 03:58:16;;;;;;;;;;;;;;;;;;5055215;28;6798;-68
2023/03/12 04:01:18;;;;;;;;;;;;;;;;;;5055148;28;7186;-68
2023/03/12 04:03:44;;;;;;;;;;;;;;;;;;5055252;28;7563;-68
2023/03/12 04:06:10;;;;;;;;;;;;;;;;;;5055112;28;7126;-68
2023/03/12 04:11:26;;;;;;;;;;;;;;;;;;5055339;28;7036;-68
2023/03/12 04:13:52;;;;;;;;;;;;;;;;;;5054877;28;7161;-68
2023/03/12 04:16:18;;;;;;;;;;;;;;;;;;5054936;28;7118;-68
2023/03/12 04:18:44;;;;;;;;;;;;;;;;;;5054868;28;7156;-68
2023/03/12 04:21:22;;;;;;;;;;;;;;;;;;5054880;28;7159;-68
2023/03/12 04:27:13;;;;;;;;;;;;;;;;;;5060792;28;7381;-68
2023/03/12 04:29:40;;;;;;;;;;;;;;;;;;5055854;28;7188;-68
2023/03/12 04:32:07;;;;;;;;;;;;;;;;;;5055371;28;7324;-68
2023/03/12 04:34:32;;;;;;;;;;;;;;;;;;5054697;28;7058;-68
2023/03/12 04:36:59;;;;;;;;;;;;;;;;;;5054473;28;7152;-68
2023/03/12 04:39:34;;;;;;;;;;;;;;;;;;5054657;28;6987;-68
2023/03/12 04:42:00;;;;;;;;;;;;;;;;;;5054513;28;7193;-68
2023/03/12 04:44:26;;;;;;;;;;;;;;;;;;5054607;28;7339;-68
2023/03/12 04:47:09;;;;;;;;;;;;;;;;;;5055806;28;7142;-68
2023/03/12 04:49:37;;;;;;;;;;;;;;;;;;5054567;28;7107;-68
2023/03/12 04:52:02;;;;;;;;;;;;;;;;;;5054508;28;7227;-68
2023/03/12 04:55:02;;;;;;;;;;;;;;;;;;5054535;28;7368;-68
2023/03/12 05:00:30;;;;;;;;;;;;;;;;;;5054474;28;6920;-68
2023/03/12 05:03:11;;;;;;;;;;;;;;;;;;5054310;28;7164;-68
2023/03/12 05:05:38;;;;;;;;;;;;;;;;;;5054497;28;7214;-68
2023/03/12 05:08:04;;;;;;;;;;;;;;;;;;5054990;28;7358;-68
2023/03/12 05:10:30;;;;;;;;;;;;;;;;;;5053740;28;7196;-68
2023/03/12 05:12:56;;;;;;;;;;;;;;;;;;5055385;28;9427;-68
2023/03/12 05:15:22;;;;;;;;;;;;;;;;;;5057765;28;6942;-68
2023/03/12 05:17:47;;;;;;;;;;;;;;;;;;5057271;28;7156;-68
2023/03/12 05:20:13;;;;;;;;;;;;;;;;;;5058184;28;7607;-68
2023/03/12 05:22:38;;;;;;;;;;;;;;;;;;5057815;28;8052;-68
2023/03/12 05:25:04;;;;;;;;;;;;;;;;;;5058168;28;7083;-68
2023/03/12 05:27:30;;;;;;;;;;;;;;;;;;5055889;28;7238;-68
2023/03/12 05:29:59;;;;;;;;;;;;;;;;;;5038162;28;7117;-68
2023/03/12 05:32:25;;;;;;;;;;;;;;;;;;5037922;28;7432;-68
2023/03/12 05:35:10;;;;;;;;;;;;;;;;;;5037822;28;7047;-68
2023/03/12 05:37:36;;;;;;;;;;;;;;;;;;5045068;28;8331;-68
2023/03/12 05:40:01;;;;;;;;;;;;;;;;;;5057582;28;7381;-68
2023/03/12 05:42:28;;;;;;;;;;;;;;;;;;5057541;28;7400;-68
2023/03/12 05:44:53;;;;;;;;;;;;;;;;;;5057701;28;7242;-68
2023/03/12 05:47:28;;;;;;;;;;;;;;;;;;5057572;28;7118;-68
2023/03/12 05:49:53;;;;;;;;;;;;;;;;;;5057707;28;7047;-67
2023/03/12 05:55:21;;;;;;;;;;;;;;;;;;5057519;28;6928;-69
2023/03/12 05:57:47;;;;;;;;;;;;;;;;;;5057429;28;6904;-69
2023/03/12 06:00:13;;;;;;;;;;;;;;;;;;5057506;28;7068;-68
2023/03/12 06:02:38;;;;;;;;;;;;;;;;;;5056979;28;6927;-69
2023/03/12 06:05:17;;;;;;;;;;;;;;;;;;5058181;28;7160;-68
2023/03/12 06:07:42;;;;;;;;;;;;;;;;;;5057260;28;7051;-69
2023/03/12 06:10:08;;;;;;;;;;;;;;;;;;5058146;28;7090;-69
2023/03/12 06:12:34;;;;;;;;;;;;;;;;;;5057238;28;7193;-69
2023/03/12 06:15:00;;;;;;;;;;;;;;;;;;5056984;28;6952;-68
2023/03/12 06:17:27;;;;;;;;;;;;;;;;;;5057059;28;6935;-69
2023/03/12 06:19:53;;;;;;;;;;;;;;;;;;5057078;28;6923;-69
2023/03/12 06:22:19;;;;;;;;;;;;;;;;;;5056855;28;7519;-69
2023/03/12 06:30:43;;;;;;;;;;;;;;;;;;5057675;28;6949;-68
2023/03/12 06:33:09;;;;;;;;;;;;;;;;;;5057341;28;7336;-68
2023/03/12 06:36:02;;;;;;;;;;;;;;;;;;5056500;28;6924;-68
2023/03/12 06:38:27;;;;;;;;;;;;;;;;;;5056759;28;7208;-68
2023/03/12 06:43:57;;;;;;;;;;;;;;;;;;5056311;28;6682;-68
2023/03/12 06:46:24;;;;;;;;;;;;;;;;;;5043989;28;7117;-68
2023/03/12 06:49:17;;;;;;;;;;;;;;;;;;5036736;28;7109;-69
2023/03/12 06:51:42;;;;;;;;;;;;;;;;;;5056080;28;6964;-69
2023/03/12 06:54:10;;;;;;;;;;;;;;;;;;5056651;28;7136;-70
2023/03/12 06:56:35;;;;;;;;;;;;;;;;;;5055554;28;7151;-68
2023/03/12 06:59:17;;;;;;;;;;;;;;;;;;5054637;28;7205;-68
2023/03/12 07:01:42;;;;;;;;;;;;;;;;;;5039098;28;7328;-68
2023/03/12 07:04:19;;;;;;;;;;;;;;;;;;5037865;28;7166;-68
2023/03/12 07:06:49;;;;;;;;;;;;;;;;;;5036263;28;7372;-68
2023/03/12 07:09:16;;;;;;;;;;;;;;;;;;5036268;28;7038;-68
2023/03/12 07:11:56;;;;;;;;;;;;;;;;;;5036159;28;7186;-68
2023/03/12 07:14:22;;;;;;;;;;;;;;;;;;5036133;28;7622;-68
2023/03/12 07:16:47;;;;;;;;;;;;;;;;;;5036005;28;7323;-68
2023/03/12 07:19:44;;;;;;;;;;;;;;;;;;5035996;28;7178;-68
2023/03/12 07:22:09;;;;;;;;;;;;;;;;;;5035908;28;6935;-68
2023/03/12 07:24:35;;;;;;;;;;;;;;;;;;5035544;28;7213;-68
2023/03/12 07:27:00;;;;;;;;;;;;;;;;;;5038630;28;6992;-68
2023/03/12 07:29:26;;;;;;;;;;;;;;;;;;5055884;28;7070;-68
2023/03/12 07:31:51;;;;;;;;;;;;;;;;;;5055695;28;7011;-70
2023/03/12 07:34:35;;;;;;;;;;;;;;;;;;5055429;28;7092;-69
2023/03/12 07:37:01;;;;;;;;;;;;;;;;;;5055361;28;6957;-68
2023/03/12 07:39:26;;;;;;;;;;;;;;;;;;5055277;28;7161;-68
2023/03/12 07:44:54;;;;;;;;;;;;;;;;;;5055560;28;6684;-68
2023/03/12 07:47:20;;;;;;;;;;;;;;;;;;5055148;28;6996;-67
2023/03/12 07:52:54;;;;;;;;;;;;;;;;;;5055146;28;6909;-68
2023/03/12 07:55:20;;;;;;;;;;;;;;;;;;5055258;28;6984;-68
2023/03/12 08:00:36;;;;;;;;;;;;;;;;;;5035615;28;6975;-68
2023/03/12 08:03:01;;;;;;;;;;;;;;;;;;5034846;28;7381;-68
2023/03/12 08:08:31;;;;;;;;;;;;;;;;;;5034970;28;6930;-68
2023/03/12 08:10:58;;;;;;;;;;;;;;;;;;5035154;28;7030;-68
2023/03/12 08:13:30;;;;;;;;;;;;;;;;;;5034965;28;7197;-68
2023/03/12 08:15:56;;;;;;;;;;;;;;;;;;5035129;28;7287;-68
2023/03/12 08:18:23;;;;;;;;;;;;;;;;;;5034715;28;7108;-68
2023/03/12 08:20:55;;;;;;;;;;;;;;;;;;5035095;28;7089;-68
2023/03/12 08:26:24;;;;;;;;;;;;;;;;;;5034750;28;7106;-68
2023/03/12 08:28:49;;;;;;;;;;;;;;;;;;5034767;28;7266;-68
2023/03/12 08:31:24;;;;;;;;;;;;;;;;;;5034856;28;7104;-68
2023/03/12 08:34:14;;;;;;;;;;;;;;;;;;5034399;28;6924;-68
2023/03/12 08:36:39;;;;;;;;;;;;;;;;;;5035662;28;7466;-68
2023/03/12 08:39:05;;;;;;;;;;;;;;;;;;5034450;28;6958;-68
2023/03/12 08:41:31;;;;;;;;;;;;;;;;;;5034808;28;7167;-68
2023/03/12 08:43:58;;;;;;;;;;;;;;;;;;5034302;28;7203;-68
2023/03/12 08:46:23;;;;;;;;;;;;;;;;;;5034758;28;7565;-68
2023/03/12 08:48:49;;;;;;;;;;;;;;;;;;5038765;28;7107;-68
2023/03/12 08:51:15;;;;;;;;;;;;;;;;;;5039957;28;7200;-68
2023/03/12 08:53:41;;;;;;;;;;;;;;;;;;5038569;28;7075;-68
2023/03/12 08:56:08;;;;;;;;;;;;;;;;;;5038718;28;7146;-68
2023/03/12 08:58:33;;;;;;;;;;;;;;;;;;5039415;28;7178;-68
2023/03/12 09:00:59;;;;;;;;;;;;;;;;;;5038686;28;7328;-68
2023/03/12 09:03:25;;;;;;;;;;;;;;;;;;5037028;28;8329;-69
2023/03/12 09:08:46;;;;;;;;;;;;;;;;;;5058325;28;6916;-69
2023/03/12 09:14:36;;;;;;;;;;;;;;;;;;5051155;28;6781;-70
2023/03/12 09:17:01;;;;;;;;;;;;;;;;;;5058084;28;7024;-70
2023/03/12 09:19:27;;;;;;;;;;;;;;;;;;5058342;28;7191;-70
2023/03/12 09:24:55;;;;;;;;;;;;;;;;;;5058225;28;6689;-70
2023/03/12 09:27:20;;;;;;;;;;;;;;;;;;5061257;28;7337;-70
2023/03/12 09:29:48;;;;;;;;;;;;;;;;;;5058252;28;7169;-70
2023/03/12 09:32:15;;;;;;;;;;;;;;;;;;5058038;28;7064;-69
2023/03/12 09:37:46;;;;;;;;;;;;;;;;;;5039149;28;6686;-70
2023/03/12 09:48:53;;;;;;;;;;;;;;;;;;5016170;28;7086;-69
2023/03/12 09:51:24;;;;;;;;;;;;;;;;;;5017503;28;6937;-69
2023/03/12 09:53:55;;;;;;;;;;;;;;;;;;5033747;28;8603;-70
2023/03/12 09:56:40;;;;;;;;;;;;;;;;;;5037353;28;7149;-69
2023/03/12 09:59:11;;;;;;;;;;;;;;;;;;5037035;28;7217;-69
2023/03/12 10:01:59;;;;;;;;;;;;;;;;;;5036888;28;7159;-70
2023/03/12 10:04:24;;;;;;;;;;;;;;;;;;5030165;28;7232;-69
2023/03/12 10:10:19;;;;;;;;;;;;;;;;;;5036788;28;6702;-70
2023/03/12 10:13:08;;;;;;;;;;;;;;;;;;5035617;28;6959;-69
2023/03/12 10:15:34;;;;;;;;;;;;;;;;;;5032967;28;6921;-70
2023/03/12 10:17:59;;;;;;;;;;;;;;;;;;5036584;28;7155;-70
2023/03/12 10:20:30;;;;;;;;;;;;;;;;;;5035923;28;7015;-70
2023/03/12 10:23:29;;;;;;;;;;;;;;;;;;5035466;28;7243;-70
2023/03/12 10:26:03;;;;;;;;;;;;;;;;;;5036311;28;6924;-70
2023/03/12 10:31:31;;;;;;;;;;;;;;;;;;5036636;28;6940;-70
2023/03/12 10:34:21;;;;;;;;;;;;;;;;;;5035609;28;7046;-70
2023/03/12 10:36:48;;;;;;;;;;;;;;;;;;5036023;28;7036;-70
2023/03/12 10:39:16;;;;;;;;;;;;;;;;;;5035839;28;6954;-70
2023/03/12 10:41:49;;;;;;;;;;;;;;;;;;5036087;28;7295;-70
2023/03/12 10:44:23;;;;;;;;;;;;;;;;;;5036099;28;7364;-70
2023/03/12 10:46:58;;;;;;;;;;;;;;;;;;5033109;28;7187;-70
2023/03/12 10:49:25;;;;;;;;;;;;;;;;;;4996194;28;6968;-70
2023/03/12 10:54:57;;;;;;;;;;;;;;;;;;5016180;28;6887;-70
2023/03/12 10:57:44;;;;;;;;;;;;;;;;;;5016085;28;7279;-70
2023/03/12 11:00:17;;;;;;;;;;;;;;;;;;5016615;28;6942;-70
2023/03/12 11:06:06;;;;;;;;;;;;;;;;;;5016245;28;6917;-70
2023/03/12 11:08:36;;;;;;;;;;;;;;;;;;5016601;28;7162;-70
2023/03/12 11:29:05;;;;;;;;;;;;;;;;;;5015983;28;6964;-71
2023/03/12 11:34:36;;;;;;;;;;;;;;;;;;4995794;28;6746;-70
2023/03/12 11:37:23;;;;;;;;;;;;;;;;;;4996158;28;6895;-70
2023/03/12 11:43:15;;;;;;;;;;;;;;;;;;5005984;28;7426;-70
2023/03/12 11:45:41;;;;;;;;;;;;;;;;;;5016319;28;7351;-69
2023/03/12 11:51:28;;;;;;;;;;;;;;;;;;5000277;28;6924;-68
2023/03/12 11:53:56;;;;;;;;;;;;;;;;;;5004287;28;7177;-70
2023/03/12 11:59:54;;;;;;;;;;;;;;;;;;5000523;28;7054;-69
2023/03/12 12:02:37;;;;;;;;;;;;;;;;;;5014883;28;8158;-69
2023/03/12 12:08:31;;;;;;;;;;;;;;;;;;4995486;28;6926;-69
2023/03/12 12:11:12;;;;;;;;;;;;;;;;;;4998613;28;7075;-69
2023/03/12 12:13:37;;;;;;;;;;;;;;;;;;5015153;28;7052;-69
2023/03/12 12:19:24;;;;;;;;;;;;;;;;;;4999837;28;6686;-69
2023/03/12 12:25:11;;;;;;;;;;;;;;;;;;4994906;28;6895;-69
2023/03/12 12:27:58;;;;;;;;;;;;;;;;;;4995432;28;7443;-69
2023/03/12 12:30:23;;;;;;;;;;;;;;;;;;5006068;28;7468;-69
2023/03/12 12:32:51;;;;;;;;;;;;;;;;;;5015440;28;7128;-69
2023/03/12 12:44:44;;;;;;;;;;;;;;;;;;5014937;28;6897;-69
2023/03/12 12:47:16;;;;;;;;;;;;;;;;;;5015213;28;7142;-69
2023/03/12 12:49:45;;;;;;;;;;;;;;;;;;5014948;28;7039;-69
2023/03/12 12:52:12;;;;;;;;;;;;;;;;;;5015549;28;7205;-69
2023/03/12 12:57:42;;;;;;;;;;;;;;;;;;5014722;28;7520;-69
2023/03/12 13:06:10;;;;;;;;;;;;;;;;;;4995244;28;6920;-69
2023/03/12 13:11:42;;;;;;;;;;;;;;;;;;4995414;28;6939;-69
2023/03/12 13:14:07;;;;;;;;;;;;;;;;;;5004642;28;6956;-69
2023/03/12 13:16:50;;;;;;;;;;;;;;;;;;5014612;28;7032;-69
2023/03/12 13:19:16;;;;;;;;;;;;;;;;;;5014536;28;7422;-70
2023/03/12 13:22:00;;;;;;;;;;;;;;;;;;5014629;28;7110;-69
2023/03/12 13:24:44;;;;;;;;;;;;;;;;;;5015035;28;7355;-70
2023/03/12 13:27:30;;;;;;;;;;;;;;;;;;5015183;28;7245;-70
2023/03/12 13:33:01;;;;;;;;;;;;;;;;;;5015198;28;6687;-69
2023/03/12 13:38:49;;;;;;;;;;;;;;;;;;5017847;28;6975;-69
2023/03/12 13:41:30;;;;;;;;;;;;;;;;;;5018212;28;7403;-70
2023/03/12 13:43:55;;;;;;;;;;;;;;;;;;5017797;28;7149;-70
2023/03/12 13:46:27;;;;;;;;;;;;;;;;;;5017804;28;7160;-70
2023/03/12 13:55:29;;;;;;;;;;;;;;;;;;5037685;28;6680;-70
2023/03/12 14:01:04;;;;;;;;;;;;;;;;;;5037501;28;6691;-70
2023/03/12 14:06:48;;;;;;;;;;;;;;;;;;5037487;28;6683;-71
2023/03/12 14:09:17;;;;;;;;;;;;;;;;;;5038517;28;7217;-70
2023/03/12 14:11:49;;;;;;;;;;;;;;;;;;5037564;28;6962;-69
2023/03/12 14:14:33;;;;;;;;;;;;;;;;;;5037292;28;7074;-69
2023/03/12 14:20:20;;;;;;;;;;;;;;;;;;5036790;28;6673;-70
2023/03/12 14:22:52;;;;;;;;;;;;;;;;;;5073031;23;7123;-69
2023/03/12 14:25:38;;;;;;;;;;;;;;;;;;5019984;28;7206;-69
2023/03/12 14:28:21;;;;;;;;;;;;;;;;;;5036652;28;7021;-69
2023/03/12 14:34:22;;;;;;;;;;;;;;;;;;5036791;28;6711;-69
2023/03/12 14:37:06;;;;;;;;;;;;;;;;;;5037044;28;7280;-69
2023/03/12 14:42:35;;;;;;;;;;;;;;;;;;5036451;28;6961;-69
2023/03/12 14:45:03;;;;;;;;;;;;;;;;;;5035704;28;7205;-69
2023/03/12 14:47:48;;;;;;;;;;;;;;;;;;5036799;28;6979;-69
2023/03/12 14:50:20;;;;;;;;;;;;;;;;;;5036405;28;6996;-69
2023/03/12 14:52:45;;;;;;;;;;;;;;;;;;5037026;28;7091;-69
2023/03/12 14:55:12;;;;;;;;;;;;;;;;;;5036321;28;7548;-69
2023/03/12 14:58:02;;;;;;;;;;;;;;;;;;5036261;28;7053;-70
2023/03/12 15:00:28;;;;;;;;;;;;;;;;;;5020977;28;7156;-70
2023/03/12 15:02:57;;;;;;;;;;;;;;;;;;5036328;28;7623;-70
2023/03/12 15:05:23;;;;;;;;;;;;;;;;;;5036063;28;6999;-70
2023/03/12 15:07:51;;;;;;;;;;;;;;;;;;5036272;28;7434;-70
2023/03/12 15:12:45;;;;;;;;;;;;;;;;;;5034007;28;6959;-69
2023/03/12 15:15:27;;;;;;;;;;;;;;;;;;5036204;28;7198;-70
2023/03/12 15:17:54;;;;;;;;;;;;;;;;;;5036215;28;7252;-70
2023/03/12 15:20:21;;;;;;;;;;;;;;;;;;5035987;28;7411;-70
2023/03/12 15:23:09;;;;;;;;;;;;;;;;;;5036220;28;7389;-70
2023/03/12 15:25:34;;;;;;;;;;;;;;;;;;5036083;28;6971;-70
2023/03/12 15:28:07;;;;;;;;;;;;;;;;;;5035732;28;9168;-70
2023/03/12 15:30:34;;;;;;;;;;;;;;;;;;5035582;28;6957;-70
2023/03/12 15:33:04;;;;;;;;;;;;;;;;;;5033937;28;6943;-70
2023/03/12 15:35:30;;;;;;;;;;;;;;;;;;5027168;28;6944;-70
2023/03/12 15:37:56;;;;;;;;;;;;;;;;;;5016042;28;6923;-70
2023/03/12 15:40:39;;;;;;;;;;;;;;;;;;5015991;28;7278;-70
2023/03/12 15:43:06;;;;;;;;;;;;;;;;;;5015791;28;7147;-70
2023/03/12 15:45:36;;;;;;;;;;;;;;;;;;5015784;28;7118;-70
2023/03/12 15:51:26;;;;;;;;;;;;;;;;;;5015631;28;6681;-70
2023/03/12 15:54:05;;;;;;;;;;;;;;;;;;5072880;23;7068;-70
2023/03/12 15:56:33;;;;;;;;;;;;;;;;;;5054639;28;6964;-69
2023/03/12 15:59:15;;;;;;;;;;;;;;;;;;5055338;28;7232;-69
2023/03/12 16:01:44;;;;;;;;;;;;;;;;;;5054884;28;7964;-69
2023/03/12 16:04:09;;;;;;;;;;;;;;;;;;5034928;28;7232;-70
2023/03/12 16:06:35;;;;;;;;;;;;;;;;;;5036032;28;6994;-70
2023/03/12 16:09:30;;;;;;;;;;;;;;;;;;5035382;28;6955;-70
2023/03/12 16:11:56;;;;;;;;;;;;;;;;;;5035607;28;7324;-70
2023/03/12 16:14:26;;;;;;;;;;;;;;;;;;5035136;28;7234;-70
2023/03/12 16:16:51;;;;;;;;;;;;;;;;;;5034694;28;7050;-70
2023/03/12 16:22:21;;;;;;;;;;;;;;;;;;5034678;28;6688;-70
2023/03/12 16:27:55;;;;;;;;;;;;;;;;;;5034710;28;6678;-70
2023/03/12 16:33:24;;;;;;;;;;;;;;;;;;5072312;23;6768;-70
2023/03/12 16:35:49;;;;;;;;;;;;;;;;;;5034887;28;7167;-66
2023/03/12 16:38:15;;;;;;;;;;;;;;;;;;5034862;28;6984;-66
2023/03/12 16:40:46;;;;;;;;;;;;;;;;;;5035358;28;7258;-65
2023/03/12 16:46:17;;;;;;;;;;;;;;;;;;5035105;28;6781;-66
2023/03/12 16:48:43;;;;;;;;;;;;;;;;;;5034682;28;7823;-66
2023/03/12 16:51:13;;;;;;;;;;;;;;;;;;5034445;28;6919;-66
2023/03/12 16:54:13;;;;;;;;;;;;;;;;;;5034647;28;7258;-66
2023/03/12 16:56:44;;;;;;;;;;;;;;;;;;5035474;28;7479;-65
2023/03/12 16:59:23;;;;;;;;;;;;;;;;;;5034947;28;6845;-65
2023/03/12 17:01:48;;;;;;;;;;;;;;;;;;5017586;28;7191;-67
2023/03/12 17:04:14;;;;;;;;;;;;;;;;;;5034290;28;6942;-66
2023/03/12 17:06:59;;;;;;;;;;;;;;;;;;5034631;28;7134;-67
2023/03/12 17:09:24;;;;;;;;;;;;;;;;;;5037489;28;7143;-67
2023/03/12 17:11:50;;;;;;;;;;;;;;;;;;5038708;28;6991;-66
2023/03/12 17:14:26;;;;;;;;;;;;;;;;;;5038474;28;7159;-67
2023/03/12 17:16:52;;;;;;;;;;;;;;;;;;5038099;28;8186;-67
2023/03/12 17:19:49;;;;;;;;;;;;;;;;;;5038444;28;7208;-66
2023/03/12 17:22:15;;;;;;;;;;;;;;;;;;5038182;28;7680;-67
2023/03/12 17:24:40;;;;;;;;;;;;;;;;;;5038260;28;7387;-67
2023/03/12 17:27:06;;;;;;;;;;;;;;;;;;5038145;28;6954;-67
2023/03/12 17:29:31;;;;;;;;;;;;;;;;;;5038261;28;7419;-67
2023/03/12 17:32:10;;;;;;;;;;;;;;;;;;5038131;28;7145;-67
2023/03/12 17:37:38;;;;;;;;;;;;;;;;;;5037731;28;6913;-66
2023/03/12 17:40:07;;;;;;;;;;;;;;;;;;5038900;28;7037;-66
2023/03/12 17:42:50;;;;;;;;;;;;;;;;;;5037527;28;7152;-67
2023/03/12 17:45:16;;;;;;;;;;;;;;;;;;5038093;28;7163;-66
2023/03/12 17:50:44;;;;;;;;;;;;;;;;;;5037709;28;7033;-66
2023/03/12 17:53:12;;;;;;;;;;;;;;;;;;5037694;28;7352;-66
2023/03/12 17:55:37;;;;;;;;;;;;;;;;;;5037918;28;7860;-66
2023/03/12 17:58:12;;;;;;;;;;;;;;;;;;5037699;28;6932;-66
2023/03/12 18:00:37;;;;;;;;;;;;;;;;;;5038097;28;7170;-66
2023/03/12 18:06:06;;;;;;;;;;;;;;;;;;5017697;28;6773;-66
2023/03/12 18:08:32;;;;;;;;;;;;;;;;;;5017662;28;7112;-66
2023/03/12 18:10:57;;;;;;;;;;;;;;;;;;5017928;28;6923;-66
2023/03/12 18:13:23;;;;;;;;;;;;;;;;;;5017564;28;7126;-66
2023/03/12 18:16:07;;;;;;;;;;;;;;;;;;5018318;28;7193;-66
2023/03/12 18:20:58;;;;;;;;;;;;;;;;;;5094059;23;7087;-66
2023/03/12 18:23:24;;;;;;;;;;;;;;;;;;5057529;28;6922;-66
2023/03/12 18:26:09;;;;;;;;;;;;;;;;;;5057572;28;7051;-66
2023/03/12 18:28:35;;;;;;;;;;;;;;;;;;5057025;28;7183;-67
2023/03/12 18:34:03;;;;;;;;;;;;;;;;;;5056667;28;6988;-67
2023/03/12 18:36:29;;;;;;;;;;;;;;;;;;5055752;28;7063;-66
2023/03/12 18:38:54;;;;;;;;;;;;;;;;;;5056729;28;6892;-66
2023/03/12 18:41:20;;;;;;;;;;;;;;;;;;5056831;28;7008;-66
2023/03/12 18:44:21;;;;;;;;;;;;;;;;;;5056315;28;7049;-67
2023/03/12 18:46:49;;;;;;;;;;;;;;;;;;5055833;28;7529;-67
2023/03/12 18:49:15;;;;;;;;;;;;;;;;;;5056783;28;7058;-65
2023/03/12 18:51:40;;;;;;;;;;;;;;;;;;5056761;28;7049;-65
2023/03/12 18:54:06;;;;;;;;;;;;;;;;;;5056668;28;7241;-65
2023/03/12 18:56:39;;;;;;;;;;;;;;;;;;5056485;28;7434;-65
2023/03/12 18:59:05;;;;;;;;;;;;;;;;;;5056174;28;7003;-65
2023/03/12 19:01:30;;;;;;;;;;;;;;;;;;5056627;28;7053;-65
2023/03/12 19:06:59;;;;;;;;;;;;;;;;;;5055931;28;6714;-65
2023/03/12 19:12:23;;;;;;;;;;;;;;;;;;5056211;28;6944;-65
2023/03/12 19:14:48;;;;;;;;;;;;;;;;;;5056093;28;7106;-65
2023/03/12 19:17:24;;;;;;;;;;;;;;;;;;5056092;28;7246;-65
2023/03/12 19:19:57;;;;;;;;;;;;;;;;;;5056166;28;6800;-64
2023/03/12 19:22:22;;;;;;;;;;;;;;;;;;5056034;28;7074;-65
2023/03/12 19:24:48;;;;;;;;;;;;;;;;;;5056541;28;7057;-65
2023/03/12 19:27:14;;;;;;;;;;;;;;;;;;5055973;28;6922;-65
2023/03/12 19:29:40;;;;;;;;;;;;;;;;;;5055910;28;7127;-65
2023/03/12 19:32:12;;;;;;;;;;;;;;;;;;5056124;28;7026;-65
2023/03/12 19:34:38;;;;;;;;;;;;;;;;;;5055779;28;7142;-65
2023/03/12 19:40:06;;;;;;;;;;;;;;;;;;5055517;28;7025;-65
2023/03/12 19:45:35;;;;;;;;;;;;;;;;;;5055745;28;6680;-65
2023/03/12 19:48:11;;;;;;;;;;;;;;;;;;5055423;28;7134;-64
2023/03/12 19:50:37;;;;;;;;;;;;;;;;;;5055434;28;7238;-65
2023/03/12 19:56:05;;;;;;;;;;;;;;;;;;5055333;28;6699;-65
2023/03/12 19:58:31;;;;;;;;;;;;;;;;;;5055579;28;6909;-65
2023/03/12 20:04:10;;;;;;;;;;;;;;;;;;5054761;28;7246;-65
2023/03/12 20:06:36;;;;;;;;;;;;;;;;;;5055896;28;7055;-65
2023/03/12 20:09:04;;;;;;;;;;;;;;;;;;5055212;28;6945;-65
2023/03/12 20:11:30;;;;;;;;;;;;;;;;;;5055205;28;6983;-65
2023/03/12 20:13:58;;;;;;;;;;;;;;;;;;5054959;28;7196;-65
2023/03/12 20:16:24;;;;;;;;;;;;;;;;;;5054914;28;6978;-65
2023/03/12 20:18:49;;;;;;;;;;;;;;;;;;5055096;28;8231;-65
2023/03/12 20:24:18;;;;;;;;;;;;;;;;;;5054627;28;6911;-65
2023/03/12 20:30:05;;;;;;;;;;;;;;;;;;5054617;28;6684;-65
2023/03/12 20:32:30;;;;;;;;;;;;;;;;;;5054766;28;7494;-65
2023/03/12 20:34:56;;;;;;;;;;;;;;;;;;5054825;28;7160;-65
2023/03/12 20:37:22;;;;;;;;;;;;;;;;;;5054893;28;6940;-65
2023/03/12 20:39:47;;;;;;;;;;;;;;;;;;5054998;28;7179;-65
2023/03/12 20:42:45;;;;;;;;;;;;;;;;;;5053973;28;6841;-65
2023/03/12 20:45:11;;;;;;;;;;;;;;;;;;5054849;28;7912;-65
2023/03/12 20:47:39;;;;;;;;;;;;;;;;;;5054780;28;7120;-65
2023/03/12 20:56:11;;;;;;;;;;;;;;;;;;5054038;28;6915;-65
2023/03/12 21:01:58;;;;;;;;;;;;;;;;;;5054379;28;6694;-65
2023/03/12 21:04:23;;;;;;;;;;;;;;;;;;5054468;28;7192;-65
2023/03/12 21:06:50;;;;;;;;;;;;;;;;;;5054509;28;6940;-65
2023/03/12 21:09:17;;;;;;;;;;;;;;;;;;5054478;28;7239;-65
2023/03/12 21:11:56;;;;;;;;;;;;;;;;;;5054065;28;7237;-65
2023/03/12 21:14:22;;;;;;;;;;;;;;;;;;5054050;28;7420;-65
2023/03/12 21:17:12;;;;;;;;;;;;;;;;;;5054303;28;7084;-65
2023/03/12 21:22:34;;;;;;;;;;;;;;;;;;5054420;28;6935;-65
2023/03/12 21:25:00;;;;;;;;;;;;;;;;;;5054382;28;7344;-65
2023/03/12 21:27:26;;;;;;;;;;;;;;;;;;5054283;28;7057;-64
2023/03/12 21:30:29;;;;;;;;;;;;;;;;;;5055190;28;7332;-65
2023/03/12 21:32:55;;;;;;;;;;;;;;;;;;5053810;28;7236;-64
2023/03/12 21:35:21;;;;;;;;;;;;;;;;;;5054195;28;7121;-64
2023/03/12 21:37:49;;;;;;;;;;;;;;;;;;5052974;28;7171;-65
2023/03/12 21:40:15;;;;;;;;;;;;;;;;;;5054292;28;7000;-64
2023/03/12 21:45:56;;;;;;;;;;;;;;;;;;5053876;28;6697;-64
2023/03/12 21:51:24;;;;;;;;;;;;;;;;;;5053913;28;6698;-64
2023/03/12 21:53:55;;;;;;;;;;;;;;;;;;5054508;28;6917;-65
2023/03/12 21:56:21;;;;;;;;;;;;;;;;;;5057697;28;7151;-64
2023/03/12 22:01:49;;;;;;;;;;;;;;;;;;5057338;28;6938;-65
2023/03/12 22:04:15;;;;;;;;;;;;;;;;;;5057457;28;7195;-64
2023/03/12 22:06:41;;;;;;;;;;;;;;;;;;5058681;28;7398;-65
2023/03/12 22:12:09;;;;;;;;;;;;;;;;;;5057142;28;6817;-65
2023/03/12 22:14:35;;;;;;;;;;;;;;;;;;5057363;28;7246;-64
2023/03/12 22:17:00;;;;;;;;;;;;;;;;;;5057291;28;7030;-65
2023/03/12 22:20:02;;;;;;;;;;;;;;;;;;5058881;28;8967;-65